sensor_id;sensor_type;location;lat;lon;timestamp;P1;durP1;ratioP1;P2;durP2;ratioP2
49376;SDS011;35253;34.688;33.040;2023-04-01T00:02:17;7.35;;;1.83;;
49376;SDS011;35253;34.688;33.040;2023-04-01T00:04:43;3.15;;;1.58;;
49376;SDS011;35253;34.688;33.040;2023-04-01T00:07:09;3.13;;;1.40;;
49376;SDS011;35253;34.688;33.040;2023-04-01T00:09:36;1.65;;;1.08;;
49376;SDS011;35253;34.688;33.040;2023-04-01T00:12:02;2.70;;;2.13;;
49376;SDS011;35253;34.688;33.040;2023-04-01T00:14:28;2.72;;;1.35;;
49376;SDS011;35253;34.688;33.040;2023-04-01T00:16:54;6.43;;;2.40;;
49376;SDS011;35253;34.688;33.040;2023-04-01T00:19:20;3.72;;;2.20;;
49376;SDS011;35253;34.688;33.040;2023-04-01T00:21:46;4.57;;;1.38;;
49376;SDS011;35253;34.688;33.040;2023-04-01T00:24:13;7.18;;;2.78;;
49376;SDS011;35253;34.688;33.040;2023-04-01T00:26:38;4.25;;;1.55;;
49376;SDS011;35253;34.688;33.040;2023-04-01T00:29:07;3.65;;;1.27;;
49376;SDS011;35253;34.688;33.040;2023-04-01T00:31:33;2.45;;;1.27;;
49376;SDS011;35253;34.688;33.040;2023-04-01T00:33:59;8.43;;;2.38;;
49376;SDS011;35253;34.688;33.040;2023-04-01T00:36:24;3.35;;;2.08;;
49376;SDS011;35253;34.688;33.040;2023-04-01T00:38:51;23.35;;;5.00;;
49376;SDS011;35253;34.688;33.040;2023-04-01T00:41:17;10.88;;;2.40;;
49376;SDS011;35253;34.688;33.040;2023-04-01T00:43:47;3.55;;;1.90;;
49376;SDS011;35253;34.688;33.040;2023-04-01T00:46:14;3.10;;;1.90;;
49376;SDS011;35253;34.688;33.040;2023-04-01T00:48:51;2.90;;;1.30;;
49376;SDS011;35253;34.688;33.040;2023-04-01T00:51:23;6.85;;;1.80;;
49376;SDS011;35253;34.688;33.040;2023-04-01T00:53:53;8.60;;;1.63;;
49376;SDS011;35253;34.688;33.040;2023-04-01T00:56:24;5.15;;;2.03;;
49376;SDS011;35253;34.688;33.040;2023-04-01T00:58:59;2.58;;;1.48;;
49376;SDS011;35253;34.688;33.040;2023-04-01T01:01:28;3.53;;;2.05;;
49376;SDS011;35253;34.688;33.040;2023-04-01T01:03:56;1.90;;;1.30;;
49376;SDS011;35253;34.688;33.040;2023-04-01T01:12:14;2.17;;;1.40;;
49376;SDS011;35253;34.688;33.040;2023-04-01T01:23:23;5.97;;;1.60;;
49376;SDS011;35253;34.688;33.040;2023-04-01T01:32:20;2.33;;;1.52;;
49376;SDS011;35253;34.688;33.040;2023-04-01T01:37:36;4.78;;;1.65;;
49376;SDS011;35253;34.688;33.040;2023-04-01T01:40:07;2.95;;;1.63;;
49376;SDS011;35253;34.688;33.040;2023-04-01T01:42:37;2.40;;;1.38;;
49376;SDS011;35253;34.688;33.040;2023-04-01T01:45:05;3.72;;;1.17;;
49376;SDS011;35253;34.688;33.040;2023-04-01T01:47:33;4.28;;;1.38;;
49376;SDS011;35253;34.688;33.040;2023-04-01T01:50:02;3.47;;;1.85;;
49376;SDS011;35253;34.688;33.040;2023-04-01T01:52:30;6.00;;;2.25;;
49376;SDS011;35253;34.688;33.040;2023-04-01T01:54:56;3.92;;;1.85;;
49376;SDS011;35253;34.688;33.040;2023-04-01T01:57:23;3.45;;;2.63;;
49376;SDS011;35253;34.688;33.040;2023-04-01T02:00:06;4.63;;;1.80;;
49376;SDS011;35253;34.688;33.040;2023-04-01T02:02:45;5.55;;;1.77;;
49376;SDS011;35253;34.688;33.040;2023-04-01T02:05:21;3.60;;;1.73;;
49376;SDS011;35253;34.688;33.040;2023-04-01T02:07:55;7.28;;;1.80;;
49376;SDS011;35253;34.688;33.040;2023-04-01T02:10:26;4.53;;;1.50;;
49376;SDS011;35253;34.688;33.040;2023-04-01T02:12:57;2.63;;;1.92;;
49376;SDS011;35253;34.688;33.040;2023-04-01T02:15:26;3.95;;;2.03;;
49376;SDS011;35253;34.688;33.040;2023-04-01T02:20:23;2.25;;;1.88;;
49376;SDS011;35253;34.688;33.040;2023-04-01T02:22:49;4.80;;;1.58;;
49376;SDS011;35253;34.688;33.040;2023-04-01T02:25:20;4.50;;;2.47;;
49376;SDS011;35253;34.688;33.040;2023-04-01T02:27:50;2.70;;;1.45;;
49376;SDS011;35253;34.688;33.040;2023-04-01T02:30:16;4.75;;;1.52;;
49376;SDS011;35253;34.688;33.040;2023-04-01T02:32:42;4.60;;;1.45;;
49376;SDS011;35253;34.688;33.040;2023-04-01T02:35:10;3.92;;;1.75;;
49376;SDS011;35253;34.688;33.040;2023-04-01T02:37:38;5.30;;;1.55;;
49376;SDS011;35253;34.688;33.040;2023-04-01T02:40:09;1.70;;;1.60;;
49376;SDS011;35253;34.688;33.040;2023-04-01T02:42:38;5.88;;;1.55;;
49376;SDS011;35253;34.688;33.040;2023-04-01T02:45:04;2.38;;;1.50;;
49376;SDS011;35253;34.688;33.040;2023-04-01T02:47:30;4.25;;;1.90;;
49376;SDS011;35253;34.688;33.040;2023-04-01T02:49:56;2.15;;;1.70;;
49376;SDS011;35253;34.688;33.040;2023-04-01T02:52:27;3.50;;;1.42;;
49376;SDS011;35253;34.688;33.040;2023-04-01T02:54:54;1.77;;;1.45;;
49376;SDS011;35253;34.688;33.040;2023-04-01T02:57:21;3.10;;;1.50;;
49376;SDS011;35253;34.688;33.040;2023-04-01T02:59:47;5.03;;;1.40;;
49376;SDS011;35253;34.688;33.040;2023-04-01T03:02:13;4.78;;;2.20;;
49376;SDS011;35253;34.688;33.040;2023-04-01T03:04:39;3.10;;;1.55;;
49376;SDS011;35253;34.688;33.040;2023-04-01T03:07:05;3.63;;;1.15;;
49376;SDS011;35253;34.688;33.040;2023-04-01T03:09:30;3.00;;;1.63;;
49376;SDS011;35253;34.688;33.040;2023-04-01T03:11:56;4.28;;;2.20;;
49376;SDS011;35253;34.688;33.040;2023-04-01T03:14:22;5.30;;;1.60;;
49376;SDS011;35253;34.688;33.040;2023-04-01T03:16:48;2.45;;;2.25;;
49376;SDS011;35253;34.688;33.040;2023-04-01T03:19:14;4.65;;;1.90;;
49376;SDS011;35253;34.688;33.040;2023-04-01T03:21:40;6.70;;;1.70;;
49376;SDS011;35253;34.688;33.040;2023-04-01T03:24:05;2.70;;;1.80;;
49376;SDS011;35253;34.688;33.040;2023-04-01T03:26:33;7.85;;;1.55;;
49376;SDS011;35253;34.688;33.040;2023-04-01T03:28:58;6.43;;;1.77;;
49376;SDS011;35253;34.688;33.040;2023-04-01T03:31:24;4.05;;;1.65;;
49376;SDS011;35253;34.688;33.040;2023-04-01T03:33:50;4.43;;;1.80;;
49376;SDS011;35253;34.688;33.040;2023-04-01T03:36:16;5.90;;;1.70;;
49376;SDS011;35253;34.688;33.040;2023-04-01T03:38:43;7.32;;;1.65;;
49376;SDS011;35253;34.688;33.040;2023-04-01T03:41:12;7.13;;;2.75;;
49376;SDS011;35253;34.688;33.040;2023-04-01T03:43:39;5.53;;;1.70;;
49376;SDS011;35253;34.688;33.040;2023-04-01T03:46:05;4.93;;;1.95;;
49376;SDS011;35253;34.688;33.040;2023-04-01T03:48:30;7.68;;;3.20;;
49376;SDS011;35253;34.688;33.040;2023-04-01T03:50:56;2.70;;;1.77;;
49376;SDS011;35253;34.688;33.040;2023-04-01T03:53:22;4.03;;;1.52;;
49376;SDS011;35253;34.688;33.040;2023-04-01T03:55:47;4.45;;;1.60;;
49376;SDS011;35253;34.688;33.040;2023-04-01T03:58:13;3.38;;;1.58;;
49376;SDS011;35253;34.688;33.040;2023-04-01T04:00:39;2.67;;;2.38;;
49376;SDS011;35253;34.688;33.040;2023-04-01T04:03:06;4.80;;;1.60;;
49376;SDS011;35253;34.688;33.040;2023-04-01T04:05:32;6.68;;;3.38;;
49376;SDS011;35253;34.688;33.040;2023-04-01T04:07:57;4.90;;;2.33;;
49376;SDS011;35253;34.688;33.040;2023-04-01T04:10:23;4.28;;;1.88;;
49376;SDS011;35253;34.688;33.040;2023-04-01T04:12:50;7.07;;;2.15;;
49376;SDS011;35253;34.688;33.040;2023-04-01T04:15:16;3.78;;;1.50;;
49376;SDS011;35253;34.688;33.040;2023-04-01T04:17:43;4.00;;;1.90;;
49376;SDS011;35253;34.688;33.040;2023-04-01T04:20:10;3.13;;;1.70;;
49376;SDS011;35253;34.688;33.040;2023-04-01T04:22:36;6.22;;;2.85;;
49376;SDS011;35253;34.688;33.040;2023-04-01T04:25:02;6.25;;;1.95;;
49376;SDS011;35253;34.688;33.040;2023-04-01T04:27:27;5.50;;;2.25;;
49376;SDS011;35253;34.688;33.040;2023-04-01T04:29:53;3.13;;;1.33;;
49376;SDS011;35253;34.688;33.040;2023-04-01T04:32:19;8.20;;;2.97;;
49376;SDS011;35253;34.688;33.040;2023-04-01T04:34:45;3.97;;;1.05;;
49376;SDS011;35253;34.688;33.040;2023-04-01T04:37:11;6.07;;;1.77;;
49376;SDS011;35253;34.688;33.040;2023-04-01T04:39:36;6.50;;;2.22;;
49376;SDS011;35253;34.688;33.040;2023-04-01T04:42:02;3.38;;;1.20;;
49376;SDS011;35253;34.688;33.040;2023-04-01T04:44:28;7.28;;;1.73;;
49376;SDS011;35253;34.688;33.040;2023-04-01T04:46:53;4.68;;;1.40;;
49376;SDS011;35253;34.688;33.040;2023-04-01T04:49:19;4.15;;;2.03;;
49376;SDS011;35253;34.688;33.040;2023-04-01T04:51:45;7.00;;;3.40;;
49376;SDS011;35253;34.688;33.040;2023-04-01T04:54:11;15.52;;;3.80;;
49376;SDS011;35253;34.688;33.040;2023-04-01T04:56:36;4.00;;;1.48;;
49376;SDS011;35253;34.688;33.040;2023-04-01T04:59:02;6.05;;;1.83;;
49376;SDS011;35253;34.688;33.040;2023-04-01T05:01:28;4.07;;;1.23;;
49376;SDS011;35253;34.688;33.040;2023-04-01T05:03:53;7.35;;;2.45;;
49376;SDS011;35253;34.688;33.040;2023-04-01T05:06:19;4.65;;;1.63;;
49376;SDS011;35253;34.688;33.040;2023-04-01T05:08:45;4.20;;;2.17;;
49376;SDS011;35253;34.688;33.040;2023-04-01T05:11:12;4.28;;;1.58;;
49376;SDS011;35253;34.688;33.040;2023-04-01T05:13:40;6.47;;;1.70;;
49376;SDS011;35253;34.688;33.040;2023-04-01T05:16:10;12.57;;;4.97;;
49376;SDS011;35253;34.688;33.040;2023-04-01T05:18:37;9.05;;;3.10;;
49376;SDS011;35253;34.688;33.040;2023-04-01T05:21:03;5.50;;;2.45;;
49376;SDS011;35253;34.688;33.040;2023-04-01T05:23:30;6.97;;;2.30;;
49376;SDS011;35253;34.688;33.040;2023-04-01T05:25:57;5.00;;;1.33;;
49376;SDS011;35253;34.688;33.040;2023-04-01T05:28:23;4.55;;;1.50;;
49376;SDS011;35253;34.688;33.040;2023-04-01T05:30:49;4.78;;;1.52;;
49376;SDS011;35253;34.688;33.040;2023-04-01T05:33:15;11.45;;;3.38;;
49376;SDS011;35253;34.688;33.040;2023-04-01T05:35:40;2.65;;;1.17;;
49376;SDS011;35253;34.688;33.040;2023-04-01T05:38:06;5.60;;;1.80;;
49376;SDS011;35253;34.688;33.040;2023-04-01T05:40:32;5.05;;;1.30;;
49376;SDS011;35253;34.688;33.040;2023-04-01T05:42:58;4.55;;;1.50;;
49376;SDS011;35253;34.688;33.040;2023-04-01T05:45:24;3.65;;;1.98;;
49376;SDS011;35253;34.688;33.040;2023-04-01T05:47:50;3.55;;;2.63;;
49376;SDS011;35253;34.688;33.040;2023-04-01T05:50:16;3.42;;;1.73;;
49376;SDS011;35253;34.688;33.040;2023-04-01T05:52:42;13.52;;;2.45;;
49376;SDS011;35253;34.688;33.040;2023-04-01T05:55:07;9.13;;;1.63;;
49376;SDS011;35253;34.688;33.040;2023-04-01T05:57:34;5.75;;;2.20;;
49376;SDS011;35253;34.688;33.040;2023-04-01T05:59:59;2.58;;;1.35;;
49376;SDS011;35253;34.688;33.040;2023-04-01T06:02:25;6.78;;;1.40;;
49376;SDS011;35253;34.688;33.040;2023-04-01T06:05:01;2.97;;;1.23;;
49376;SDS011;35253;34.688;33.040;2023-04-01T06:07:36;7.25;;;1.92;;
49376;SDS011;35253;34.688;33.040;2023-04-01T06:10:05;3.95;;;1.98;;
49376;SDS011;35253;34.688;33.040;2023-04-01T06:12:40;6.05;;;1.38;;
49376;SDS011;35253;34.688;33.040;2023-04-01T06:23:19;7.55;;;2.22;;
49376;SDS011;35253;34.688;33.040;2023-04-01T06:31:10;4.18;;;1.40;;
49376;SDS011;35253;34.688;33.040;2023-04-01T06:51:03;7.32;;;2.33;;
49376;SDS011;35253;34.688;33.040;2023-04-01T06:53:56;7.07;;;1.67;;
49376;SDS011;35253;34.688;33.040;2023-04-01T06:56:45;6.93;;;2.90;;
49376;SDS011;35253;34.688;33.040;2023-04-01T06:59:17;5.25;;;1.30;;
49376;SDS011;35253;34.688;33.040;2023-04-01T07:01:49;3.95;;;1.25;;
49376;SDS011;35253;34.688;33.040;2023-04-01T07:04:32;3.17;;;1.33;;
49376;SDS011;35253;34.688;33.040;2023-04-01T07:07:05;7.13;;;2.10;;
49376;SDS011;35253;34.688;33.040;2023-04-01T07:09:41;6.28;;;1.55;;
49376;SDS011;35253;34.688;33.040;2023-04-01T07:15:11;3.08;;;1.67;;
49376;SDS011;35253;34.688;33.040;2023-04-01T07:18:05;3.67;;;1.20;;
49376;SDS011;35253;34.688;33.040;2023-04-01T07:20:41;5.72;;;2.03;;
49376;SDS011;35253;34.688;33.040;2023-04-01T07:23:10;6.32;;;1.40;;
49376;SDS011;35253;34.688;33.040;2023-04-01T07:25:47;4.93;;;1.88;;
49376;SDS011;35253;34.688;33.040;2023-04-01T07:28:17;5.40;;;1.38;;
49376;SDS011;35253;34.688;33.040;2023-04-01T07:30:47;4.78;;;2.50;;
49376;SDS011;35253;34.688;33.040;2023-04-01T07:33:31;9.63;;;2.42;;
49376;SDS011;35253;34.688;33.040;2023-04-01T07:39:25;10.52;;;2.08;;
49376;SDS011;35253;34.688;33.040;2023-04-01T08:06:22;11.65;;;2.10;;
49376;SDS011;35253;34.688;33.040;2023-04-01T08:11:54;11.23;;;3.20;;
49376;SDS011;35253;34.688;33.040;2023-04-01T08:17:12;10.77;;;2.63;;
49376;SDS011;35253;34.688;33.040;2023-04-01T08:22:26;12.65;;;3.85;;
49376;SDS011;35253;34.688;33.040;2023-04-01T08:25:09;10.98;;;3.30;;
49376;SDS011;35253;34.688;33.040;2023-04-01T08:27:46;13.40;;;3.42;;
49376;SDS011;35253;34.688;33.040;2023-04-01T08:32:50;7.65;;;2.22;;
49376;SDS011;35253;34.688;33.040;2023-04-01T08:36:01;12.82;;;2.83;;
49376;SDS011;35253;34.688;33.040;2023-04-01T08:41:08;15.25;;;4.05;;
49376;SDS011;35253;34.688;33.040;2023-04-01T08:44:04;14.32;;;3.40;;
49376;SDS011;35253;34.688;33.040;2023-04-01T08:46:57;17.63;;;5.43;;
49376;SDS011;35253;34.688;33.040;2023-04-01T08:52:33;12.02;;;4.70;;
49376;SDS011;35253;34.688;33.040;2023-04-01T08:57:52;23.98;;;9.07;;
49376;SDS011;35253;34.688;33.040;2023-04-01T09:00:31;17.27;;;3.78;;
49376;SDS011;35253;34.688;33.040;2023-04-01T09:17:06;16.35;;;6.55;;
49376;SDS011;35253;34.688;33.040;2023-04-01T09:31:20;14.10;;;5.07;;
49376;SDS011;35253;34.688;33.040;2023-04-01T09:34:19;11.55;;;3.78;;
49376;SDS011;35253;34.688;33.040;2023-04-01T09:39:26;14.75;;;3.25;;
49376;SDS011;35253;34.688;33.040;2023-04-01T09:44:46;6.78;;;1.88;;
49376;SDS011;35253;34.688;33.040;2023-04-01T09:52:39;13.68;;;3.45;;
49376;SDS011;35253;34.688;33.040;2023-04-01T09:55:44;20.27;;;4.68;;
49376;SDS011;35253;34.688;33.040;2023-04-01T10:18:36;23.27;;;5.57;;
49376;SDS011;35253;34.688;33.040;2023-04-01T10:21:19;15.55;;;4.28;;
49376;SDS011;35253;34.688;33.040;2023-04-01T10:26:50;12.75;;;2.00;;
49376;SDS011;35253;34.688;33.040;2023-04-01T10:43:05;6.80;;;2.33;;
49376;SDS011;35253;34.688;33.040;2023-04-01T10:48:18;14.38;;;4.10;;
49376;SDS011;35253;34.688;33.040;2023-04-01T10:54:10;17.92;;;4.13;;
49376;SDS011;35253;34.688;33.040;2023-04-01T10:56:52;14.23;;;5.13;;
49376;SDS011;35253;34.688;33.040;2023-04-01T11:02:33;15.80;;;3.53;;
49376;SDS011;35253;34.688;33.040;2023-04-01T11:16:08;4.72;;;1.60;;
49376;SDS011;35253;34.688;33.040;2023-04-01T11:18:51;7.05;;;1.73;;
49376;SDS011;35253;34.688;33.040;2023-04-01T11:27:38;7.38;;;2.67;;
49376;SDS011;35253;34.688;33.040;2023-04-01T11:41:01;9.80;;;3.20;;
49376;SDS011;35253;34.688;33.040;2023-04-01T11:43:40;10.13;;;2.95;;
49376;SDS011;35253;34.688;33.040;2023-04-01T11:46:18;26.27;;;7.90;;
49376;SDS011;35253;34.688;33.040;2023-04-01T11:54:35;10.40;;;2.25;;
49376;SDS011;35253;34.688;33.040;2023-04-01T12:11:15;11.00;;;3.20;;
49376;SDS011;35253;34.688;33.040;2023-04-01T12:19:32;10.88;;;2.88;;
49376;SDS011;35253;34.688;33.040;2023-04-01T12:25:22;16.77;;;4.22;;
49376;SDS011;35253;34.688;33.040;2023-04-01T12:28:37;16.40;;;3.83;;
49376;SDS011;35253;34.688;33.040;2023-04-01T12:34:24;8.48;;;2.97;;
49376;SDS011;35253;34.688;33.040;2023-04-01T12:37:04;7.70;;;2.10;;
49376;SDS011;35253;34.688;33.040;2023-04-01T12:45:29;10.70;;;2.08;;
49376;SDS011;35253;34.688;33.040;2023-04-01T13:16:22;16.23;;;4.63;;
49376;SDS011;35253;34.688;33.040;2023-04-01T13:18:57;15.75;;;6.47;;
49376;SDS011;35253;34.688;33.040;2023-04-01T13:22:04;9.88;;;3.33;;
49376;SDS011;35253;34.688;33.040;2023-04-01T13:27:29;17.33;;;4.07;;
49376;SDS011;35253;34.688;33.040;2023-04-01T13:35:21;9.40;;;2.67;;
49376;SDS011;35253;34.688;33.040;2023-04-01T13:38:12;14.95;;;4.32;;
49376;SDS011;35253;34.688;33.040;2023-04-01T13:41:00;8.73;;;2.95;;
49376;SDS011;35253;34.688;33.040;2023-04-01T13:43:36;30.60;;;9.85;;
49376;SDS011;35253;34.688;33.040;2023-04-01T13:57:11;9.20;;;2.58;;
49376;SDS011;35253;34.688;33.040;2023-04-01T14:05:29;8.90;;;2.45;;
49376;SDS011;35253;34.688;33.040;2023-04-01T14:11:16;12.13;;;3.10;;
49376;SDS011;35253;34.688;33.040;2023-04-01T14:19:46;10.57;;;2.42;;
49376;SDS011;35253;34.688;33.040;2023-04-01T14:28:18;15.15;;;4.03;;
49376;SDS011;35253;34.688;33.040;2023-04-01T14:34:09;35.45;;;13.45;;
49376;SDS011;35253;34.688;33.040;2023-04-01T14:39:49;6.43;;;1.50;;
49376;SDS011;35253;34.688;33.040;2023-04-01T14:42:55;11.68;;;3.45;;
49376;SDS011;35253;34.688;33.040;2023-04-01T14:45:45;11.02;;;2.25;;
49376;SDS011;35253;34.688;33.040;2023-04-01T14:48:24;9.02;;;1.98;;
49376;SDS011;35253;34.688;33.040;2023-04-01T14:51:13;18.85;;;6.63;;
49376;SDS011;35253;34.688;33.040;2023-04-01T14:53:43;12.98;;;4.45;;
49376;SDS011;35253;34.688;33.040;2023-04-01T15:01:47;9.40;;;3.25;;
49376;SDS011;35253;34.688;33.040;2023-04-01T15:12:59;11.52;;;2.70;;
49376;SDS011;35253;34.688;33.040;2023-04-01T15:18:08;13.45;;;4.30;;
49376;SDS011;35253;34.688;33.040;2023-04-01T15:21:01;23.35;;;8.00;;
49376;SDS011;35253;34.688;33.040;2023-04-01T15:26:33;12.38;;;1.80;;
49376;SDS011;35253;34.688;33.040;2023-04-01T15:29:27;15.30;;;3.30;;
49376;SDS011;35253;34.688;33.040;2023-04-01T15:38:11;11.82;;;2.65;;
49376;SDS011;35253;34.688;33.040;2023-04-01T15:43:25;8.30;;;3.92;;
49376;SDS011;35253;34.688;33.040;2023-04-01T15:57:09;14.27;;;3.15;;
49376;SDS011;35253;34.688;33.040;2023-04-01T16:07:47;14.77;;;4.28;;
49376;SDS011;35253;34.688;33.040;2023-04-01T16:16:50;19.45;;;7.47;;
49376;SDS011;35253;34.688;33.040;2023-04-01T16:18:52;45.33;;;15.90;;
49376;SDS011;35253;34.688;33.040;2023-04-01T16:24:44;8.50;;;3.38;;
49376;SDS011;35253;34.688;33.040;2023-04-01T16:30:03;22.35;;;9.20;;
49376;SDS011;35253;34.688;33.040;2023-04-01T16:32:50;21.42;;;3.83;;
49376;SDS011;35253;34.688;33.040;2023-04-01T16:35:41;50.05;;;15.63;;
49376;SDS011;35253;34.688;33.040;2023-04-01T16:43:50;24.05;;;6.30;;
49376;SDS011;35253;34.688;33.040;2023-04-01T16:49:00;10.15;;;4.35;;
49376;SDS011;35253;34.688;33.040;2023-04-01T16:54:30;22.10;;;6.75;;
49376;SDS011;35253;34.688;33.040;2023-04-01T17:02:36;41.50;;;13.85;;
49376;SDS011;35253;34.688;33.040;2023-04-01T17:05:09;17.00;;;6.45;;
49376;SDS011;35253;34.688;33.040;2023-04-01T17:18:41;20.90;;;5.97;;
49376;SDS011;35253;34.688;33.040;2023-04-01T17:21:16;25.10;;;8.57;;
49376;SDS011;35253;34.688;33.040;2023-04-01T17:27:05;19.55;;;9.20;;
49376;SDS011;35253;34.688;33.040;2023-04-01T17:32:39;17.92;;;5.68;;
49376;SDS011;35253;34.688;33.040;2023-04-01T17:35:21;18.25;;;5.03;;
49376;SDS011;35253;34.688;33.040;2023-04-01T17:51:43;25.05;;;9.93;;
49376;SDS011;35253;34.688;33.040;2023-04-01T18:02:54;44.67;;;17.98;;
49376;SDS011;35253;34.688;33.040;2023-04-01T18:05:24;18.73;;;7.85;;
49376;SDS011;35253;34.688;33.040;2023-04-01T18:08:05;17.90;;;5.32;;
49376;SDS011;35253;34.688;33.040;2023-04-01T18:16:13;12.60;;;3.80;;
49376;SDS011;35253;34.688;33.040;2023-04-01T18:18:56;9.82;;;3.60;;
49376;SDS011;35253;34.688;33.040;2023-04-01T18:21:30;29.88;;;13.55;;
49376;SDS011;35253;34.688;33.040;2023-04-01T18:24:00;18.55;;;6.72;;
49376;SDS011;35253;34.688;33.040;2023-04-01T18:26:31;12.77;;;5.22;;
49376;SDS011;35253;34.688;33.040;2023-04-01T18:29:01;41.58;;;20.17;;
49376;SDS011;35253;34.688;33.040;2023-04-01T18:31:35;22.88;;;8.90;;
49376;SDS011;35253;34.688;33.040;2023-04-01T18:37:23;18.35;;;6.88;;
49376;SDS011;35253;34.688;33.040;2023-04-01T18:39:56;10.57;;;3.63;;
49376;SDS011;35253;34.688;33.040;2023-04-01T18:45:40;25.13;;;9.75;;
49376;SDS011;35253;34.688;33.040;2023-04-01T18:48:16;16.55;;;5.57;;
49376;SDS011;35253;34.688;33.040;2023-04-01T18:51:27;22.50;;;7.82;;
49376;SDS011;35253;34.688;33.040;2023-04-01T18:54:24;21.23;;;8.27;;
49376;SDS011;35253;34.688;33.040;2023-04-01T18:56:50;18.35;;;6.80;;
49376;SDS011;35253;34.688;33.040;2023-04-01T18:59:21;42.95;;;22.88;;
49376;SDS011;35253;34.688;33.040;2023-04-01T19:04:39;35.72;;;18.20;;
49376;SDS011;35253;34.688;33.040;2023-04-01T19:10:48;26.92;;;10.35;;
49376;SDS011;35253;34.688;33.040;2023-04-01T19:18:13;29.88;;;14.68;;
49376;SDS011;35253;34.688;33.040;2023-04-01T19:21:04;22.00;;;8.30;;
49376;SDS011;35253;34.688;33.040;2023-04-01T19:29:37;19.50;;;7.18;;
49376;SDS011;35253;34.688;33.040;2023-04-01T19:32:33;37.08;;;13.15;;
49376;SDS011;35253;34.688;33.040;2023-04-01T19:35:18;30.88;;;12.55;;
49376;SDS011;35253;34.688;33.040;2023-04-01T19:40:54;95.38;;;40.08;;
49376;SDS011;35253;34.688;33.040;2023-04-01T19:43:44;48.50;;;18.00;;
49376;SDS011;35253;34.688;33.040;2023-04-01T19:46:25;27.33;;;10.15;;
49376;SDS011;35253;34.688;33.040;2023-04-01T19:54:42;19.38;;;9.05;;
49376;SDS011;35253;34.688;33.040;2023-04-01T19:57:46;17.92;;;5.72;;
49376;SDS011;35253;34.688;33.040;2023-04-01T20:05:50;47.20;;;18.25;;
49376;SDS011;35253;34.688;33.040;2023-04-01T20:08:38;30.52;;;7.93;;
49376;SDS011;35253;34.688;33.040;2023-04-01T20:14:10;12.02;;;4.90;;
49376;SDS011;35253;34.688;33.040;2023-04-01T20:28:14;20.35;;;6.53;;
49376;SDS011;35253;34.688;33.040;2023-04-01T20:33:42;25.83;;;11.15;;
49376;SDS011;35253;34.688;33.040;2023-04-01T20:42:02;29.00;;;10.55;;
49376;SDS011;35253;34.688;33.040;2023-04-01T20:47:45;15.98;;;6.43;;
49376;SDS011;35253;34.688;33.040;2023-04-01T20:50:31;21.58;;;7.70;;
49376;SDS011;35253;34.688;33.040;2023-04-01T20:59:22;18.25;;;3.40;;
49376;SDS011;35253;34.688;33.040;2023-04-01T21:26:19;20.75;;;6.88;;
49376;SDS011;35253;34.688;33.040;2023-04-01T21:31:55;14.38;;;4.65;;
49376;SDS011;35253;34.688;33.040;2023-04-01T21:37:18;22.45;;;7.32;;
49376;SDS011;35253;34.688;33.040;2023-04-01T21:42:32;24.92;;;7.93;;
49376;SDS011;35253;34.688;33.040;2023-04-01T21:45:31;19.40;;;5.82;;
49376;SDS011;35253;34.688;33.040;2023-04-01T21:51:17;22.38;;;6.15;;
49376;SDS011;35253;34.688;33.040;2023-04-01T21:54:02;9.63;;;2.20;;
49376;SDS011;35253;34.688;33.040;2023-04-01T22:02:38;11.23;;;1.92;;
49376;SDS011;35253;34.688;33.040;2023-04-01T22:05:19;8.38;;;1.98;;
49376;SDS011;35253;34.688;33.040;2023-04-01T22:08:26;7.53;;;1.90;;
49376;SDS011;35253;34.688;33.040;2023-04-01T22:13:58;38.58;;;16.80;;
49376;SDS011;35253;34.688;33.040;2023-04-01T22:19:34;12.32;;;2.97;;
49376;SDS011;35253;34.688;33.040;2023-04-01T22:22:32;7.40;;;1.50;;
49376;SDS011;35253;34.688;33.040;2023-04-01T22:30:52;12.43;;;2.22;;
49376;SDS011;35253;34.688;33.040;2023-04-01T22:38:41;9.02;;;2.42;;
49376;SDS011;35253;34.688;33.040;2023-04-01T22:47:14;6.18;;;1.40;;
49376;SDS011;35253;34.688;33.040;2023-04-01T22:50:03;12.73;;;2.00;;
49376;SDS011;35253;34.688;33.040;2023-04-01T22:52:40;26.15;;;11.63;;
49376;SDS011;35253;34.688;33.040;2023-04-01T22:55:11;19.80;;;7.90;;
49376;SDS011;35253;34.688;33.040;2023-04-01T22:57:44;18.35;;;6.13;;
49376;SDS011;35253;34.688;33.040;2023-04-01T23:03:26;23.73;;;6.90;;
49376;SDS011;35253;34.688;33.040;2023-04-01T23:05:56;9.43;;;4.10;;
49376;SDS011;35253;34.688;33.040;2023-04-01T23:10:59;18.02;;;4.63;;
49376;SDS011;35253;34.688;33.040;2023-04-01T23:13:29;28.63;;;11.57;;
49376;SDS011;35253;34.688;33.040;2023-04-01T23:16:00;25.23;;;9.90;;
49376;SDS011;35253;34.688;33.040;2023-04-01T23:18:32;29.25;;;13.50;;
49376;SDS011;35253;34.688;33.040;2023-04-01T23:21:54;41.97;;;16.13;;
49376;SDS011;35253;34.688;33.040;2023-04-01T23:24:17;42.75;;;16.75;;
49376;SDS011;35253;34.688;33.040;2023-04-01T23:27:11;30.42;;;12.75;;
49376;SDS011;35253;34.688;33.040;2023-04-01T23:29:54;19.17;;;5.40;;
49376;SDS011;35253;34.688;33.040;2023-04-01T23:32:21;15.80;;;6.20;;
49376;SDS011;35253;34.688;33.040;2023-04-01T23:34:52;17.77;;;5.55;;
49376;SDS011;35253;34.688;33.040;2023-04-01T23:37:23;6.38;;;2.10;;
49376;SDS011;35253;34.688;33.040;2023-04-01T23:39:51;11.27;;;3.17;;
49376;SDS011;35253;34.688;33.040;2023-04-01T23:44:45;33.13;;;10.80;;
49376;SDS011;35253;34.688;33.040;2023-04-01T23:47:14;30.52;;;13.90;;
49376;SDS011;35253;34.688;33.040;2023-04-01T23:49:51;20.02;;;7.55;;
49376;SDS011;35253;34.688;33.040;2023-04-01T23:52:48;19.65;;;6.15;;
49376;SDS011;35253;34.688;33.040;2023-04-01T23:55:34;16.05;;;4.97;;
